createdAt,value
2022-11-18T00:02:24.553Z,34.97
2022-11-18T00:04:51.920Z,33.07
2022-11-18T00:07:19.970Z,32.77
2022-11-18T00:09:47.295Z,35.33
2022-11-18T00:12:33.200Z,37.70
2022-11-18T00:15:00.459Z,35.23
2022-11-18T00:17:27.760Z,32.83
2022-11-18T00:19:55.238Z,30.43
2022-11-18T00:22:28.455Z,30.77
2022-11-18T00:24:57.144Z,29.20
2022-11-18T00:27:24.631Z,31.27
2022-11-18T00:29:51.958Z,36.93
2022-11-18T00:32:19.212Z,28.00
2022-11-18T00:34:46.578Z,31.67
2022-11-18T00:37:13.923Z,31.33
2022-11-18T00:39:41.181Z,32.23
2022-11-18T00:42:27.083Z,34.20
2022-11-18T00:44:54.390Z,30.03
2022-11-18T00:47:21.696Z,33.67
2022-11-18T00:49:48.906Z,32.27
2022-11-18T00:52:16.261Z,33.83
2022-11-18T00:54:43.509Z,33.90
2022-11-18T00:57:10.953Z,34.30
2022-11-18T00:59:38.195Z,32.17
2022-11-18T01:02:05.464Z,34.10
2022-11-18T01:04:32.893Z,29.73
2022-11-18T01:07:00.243Z,32.47
2022-11-18T01:09:27.590Z,32.13
2022-11-18T01:12:13.758Z,32.13
2022-11-18T01:14:41.045Z,36.47
2022-11-18T01:17:08.283Z,33.03
2022-11-18T01:19:36.143Z,30.70
2022-11-18T01:22:03.565Z,29.97
2022-11-18T01:24:31.712Z,30.30
2022-11-18T01:26:59.223Z,32.97
2022-11-18T01:29:26.893Z,31.77
2022-11-18T01:32:24.110Z,30.77
2022-11-18T01:34:43.132Z,31.90
2022-11-18T01:37:10.697Z,28.50
2022-11-18T01:39:38.247Z,30.47
2022-11-18T01:42:05.527Z,31.70
2022-11-18T01:45:11.533Z,32.67
2022-11-18T01:47:55.075Z,32.40
2022-11-18T01:50:22.801Z,32.53
2022-11-18T01:52:52.031Z,33.67
2022-11-18T01:55:22.671Z,34.70
2022-11-18T01:57:51.638Z,35.83
2022-11-18T02:00:18.961Z,34.40
2022-11-18T02:02:46.842Z,36.50
2022-11-18T02:05:14.279Z,34.20
2022-11-18T02:07:43.420Z,31.90
2022-11-18T02:10:17.104Z,37.57
2022-11-18T02:12:44.511Z,32.87
2022-11-18T02:15:11.951Z,32.83
2022-11-18T02:17:39.230Z,34.83
2022-11-18T02:20:09.452Z,29.97
2022-11-18T02:22:44.143Z,32.03
2022-11-18T02:25:34.133Z,29.37
2022-11-18T02:28:28.342Z,31.13
2022-11-18T02:30:58.722Z,29.00
2022-11-18T02:33:29.533Z,31.73
2022-11-18T02:36:06.469Z,31.87
2022-11-18T02:38:38.346Z,30.57
2022-11-18T02:41:10.159Z,30.43
2022-11-18T02:43:47.198Z,29.10
2022-11-18T02:46:16.839Z,28.50
2022-11-18T02:48:47.256Z,28.83
2022-11-18T02:51:18.075Z,27.43
2022-11-18T02:53:46.670Z,27.10
2022-11-18T02:56:14.920Z,25.67
2022-11-18T02:58:42.177Z,26.40
2022-11-18T03:01:16.103Z,26.53
2022-11-18T03:03:43.441Z,28.43
2022-11-18T03:06:26.111Z,29.47
2022-11-18T03:08:55.767Z,27.07
2022-11-18T03:11:24.679Z,25.03
2022-11-18T03:13:54.902Z,30.03
2022-11-18T03:16:25.963Z,30.07
2022-11-18T03:19:06.470Z,28.57
2022-11-18T03:21:56.679Z,30.13
2022-11-18T03:24:32.670Z,29.43
2022-11-18T03:27:05.881Z,29.40
2022-11-18T03:29:35.115Z,29.73
2022-11-18T03:32:12.959Z,27.87
2022-11-18T03:34:44.030Z,34.73
2022-11-18T03:37:13.301Z,33.93
2022-11-18T03:39:43.965Z,33.63
2022-11-18T03:42:16.826Z,34.27
2022-11-18T03:44:52.115Z,34.73
2022-11-18T03:47:23.294Z,39.70
2022-11-18T03:49:53.603Z,37.97
2022-11-18T03:52:23.531Z,40.23
2022-11-18T03:54:52.011Z,39.43
2022-11-18T03:57:21.896Z,38.03
2022-11-18T03:59:51.896Z,36.70
2022-11-18T04:02:23.943Z,36.97
2022-11-18T04:04:52.702Z,38.20
2022-11-18T04:07:40.847Z,40.53
2022-11-18T04:10:26.600Z,38.90
2022-11-18T04:13:29.341Z,36.53
2022-11-18T04:15:56.737Z,30.97
2022-11-18T04:18:24.362Z,33.33
2022-11-18T04:20:51.664Z,32.13
2022-11-18T04:23:18.908Z,31.80
2022-11-18T04:25:46.557Z,34.30
2022-11-18T04:28:13.818Z,35.83
2022-11-18T04:30:41.069Z,36.17
2022-11-18T04:33:08.422Z,31.37
2022-11-18T04:35:35.741Z,30.83
2022-11-18T04:38:04.826Z,34.20
2022-11-18T04:40:32.681Z,33.27
2022-11-18T04:42:59.988Z,31.27
2022-11-18T04:45:27.261Z,31.67
2022-11-18T04:47:58.855Z,30.63
2022-11-18T04:50:29.326Z,29.30
2022-11-18T04:52:56.846Z,30.83
2022-11-18T04:55:24.094Z,31.30
2022-11-18T04:57:51.347Z,31.27
2022-11-18T05:00:18.681Z,31.47
2022-11-18T05:02:45.942Z,30.73
2022-11-18T05:05:13.170Z,28.87
2022-11-18T05:07:40.499Z,34.30
2022-11-18T05:10:08.262Z,29.87
2022-11-18T05:12:50.942Z,30.93
2022-11-18T05:15:19.009Z,32.00
2022-11-18T05:17:46.494Z,28.47
2022-11-18T05:20:14.048Z,32.10
2022-11-18T05:22:41.346Z,29.17
2022-11-18T05:25:08.846Z,28.63
2022-11-18T05:27:36.170Z,29.97
2022-11-18T05:30:03.478Z,30.40
2022-11-18T05:32:30.742Z,29.40
2022-11-18T05:34:58.046Z,26.03
2022-11-18T05:37:25.284Z,28.97
2022-11-18T05:39:52.558Z,25.13
2022-11-18T05:42:38.708Z,22.43
2022-11-18T05:45:06.858Z,25.23
2022-11-18T05:47:54.112Z,25.33
2022-11-18T05:50:21.700Z,23.53
2022-11-18T05:52:48.980Z,23.73
2022-11-18T05:55:17.030Z,21.33
2022-11-18T05:57:44.389Z,19.33
2022-11-18T06:00:12.061Z,19.50
2022-11-18T06:02:40.812Z,19.20
2022-11-18T06:05:08.387Z,20.20
2022-11-18T06:07:39.268Z,19.73
2022-11-18T06:10:06.930Z,18.77
2022-11-18T06:12:36.619Z,16.23
2022-11-18T06:15:05.926Z,15.07
2022-11-18T06:17:36.378Z,16.87
2022-11-18T06:20:04.476Z,18.03
2022-11-18T06:22:33.018Z,16.53
2022-11-18T06:25:01.099Z,15.97
2022-11-18T06:27:29.040Z,16.87
2022-11-18T06:29:56.267Z,16.80
2022-11-18T06:32:23.500Z,17.43
2022-11-18T06:34:50.971Z,17.07
2022-11-18T06:37:20.738Z,17.50
2022-11-18T06:39:48.190Z,18.77
2022-11-18T06:42:35.729Z,19.67
2022-11-18T06:45:03.565Z,19.13
2022-11-18T06:47:31.042Z,19.10
2022-11-18T06:49:58.261Z,19.13
2022-11-18T06:52:25.502Z,16.53
2022-11-18T06:54:52.850Z,16.03
2022-11-18T06:57:20.249Z,18.80
2022-11-18T06:59:47.993Z,17.33
2022-11-18T07:02:15.302Z,18.43
2022-11-18T07:04:43.382Z,16.73
2022-11-18T07:07:10.701Z,16.83
2022-11-18T07:09:38.523Z,16.43
2022-11-18T07:12:06.176Z,21.33
2022-11-18T07:14:33.498Z,17.77
2022-11-18T07:17:02.997Z,18.57
2022-11-18T07:19:35.636Z,20.60
2022-11-18T07:22:03.312Z,17.37
2022-11-18T07:24:31.304Z,17.10
2022-11-18T07:26:58.618Z,16.97
2022-11-18T07:29:25.881Z,18.60
2022-11-18T07:31:53.102Z,17.87
2022-11-18T07:34:20.384Z,16.90
2022-11-18T07:36:47.806Z,17.13
2022-11-18T07:39:15.131Z,18.27
2022-11-18T07:41:42.480Z,20.97
2022-11-18T07:44:12.475Z,18.20
2022-11-18T07:46:39.990Z,16.50
2022-11-18T07:49:12.253Z,16.63
2022-11-18T07:51:40.217Z,15.17
2022-11-18T07:54:16.150Z,14.63
2022-11-18T07:56:45.064Z,15.13
2022-11-18T07:59:12.340Z,13.53
2022-11-18T08:01:40.835Z,16.90
2022-11-18T08:04:11.277Z,15.17
2022-11-18T08:06:39.436Z,18.43
2022-11-18T08:09:07.616Z,15.37
2022-11-18T08:11:36.523Z,16.47
2022-11-18T08:14:03.901Z,16.07
2022-11-18T08:16:31.173Z,16.37
2022-11-18T08:18:59.943Z,16.40
2022-11-18T08:21:27.717Z,16.83
2022-11-18T08:23:56.504Z,15.10
2022-11-18T08:26:24.948Z,15.40
2022-11-18T08:28:52.479Z,13.50
2022-11-18T08:31:24.832Z,12.13
2022-11-18T08:34:00.617Z,13.70
2022-11-18T08:36:29.567Z,12.53
2022-11-18T08:38:57.749Z,12.57
2022-11-18T08:41:34.000Z,12.60
2022-11-18T08:44:01.867Z,13.93
2022-11-18T08:46:29.522Z,15.07
2022-11-18T08:48:57.294Z,13.40
2022-11-18T08:51:25.141Z,13.60
2022-11-18T08:53:52.429Z,13.93
2022-11-18T08:56:20.868Z,14.00
2022-11-18T08:58:48.471Z,9.03
2022-11-18T09:01:16.905Z,9.47
2022-11-18T09:03:44.498Z,9.57
2022-11-18T09:06:11.742Z,11.13
2022-11-18T09:08:39.200Z,9.67
2022-11-18T09:11:10.279Z,12.23
2022-11-18T09:14:04.361Z,10.83
2022-11-18T09:16:28.136Z,12.07
2022-11-18T09:18:57.045Z,11.43
2022-11-18T09:21:24.835Z,11.83
2022-11-18T09:23:52.376Z,11.77
2022-11-18T09:26:29.517Z,11.43
2022-11-18T09:28:56.826Z,12.70
2022-11-18T09:31:24.125Z,9.47
2022-11-18T09:33:51.440Z,10.10
2022-11-18T09:36:20.224Z,10.53
2022-11-18T09:38:51.878Z,16.17
2022-11-18T09:41:41.420Z,10.93
2022-11-18T09:44:08.700Z,10.70
2022-11-18T09:46:38.732Z,11.93
2022-11-18T09:49:14.812Z,9.07
2022-11-18T09:51:44.375Z,9.33
2022-11-18T09:54:13.298Z,15.37
2022-11-18T09:56:41.734Z,11.57
2022-11-18T09:59:12.483Z,11.00
2022-11-18T10:01:39.831Z,11.90
2022-11-18T10:04:07.134Z,11.40
2022-11-18T10:06:34.675Z,12.27
2022-11-18T10:09:27.171Z,10.90
2022-11-18T10:12:13.362Z,10.60
2022-11-18T10:14:40.854Z,10.43
2022-11-18T10:17:16.598Z,11.33
2022-11-18T10:19:48.429Z,11.13
2022-11-18T10:22:24.674Z,11.27
2022-11-18T10:24:56.891Z,11.57
2022-11-18T10:27:27.083Z,22.93
2022-11-18T10:29:58.682Z,11.77
2022-11-18T10:32:26.003Z,10.93
2022-11-18T10:34:58.069Z,9.63
2022-11-18T10:38:06.371Z,10.93
2022-11-18T10:40:26.706Z,12.47
2022-11-18T10:42:54.075Z,10.50
2022-11-18T10:45:28.396Z,11.40
2022-11-18T10:48:15.646Z,10.47
2022-11-18T10:50:44.680Z,11.03
2022-11-18T10:53:31.444Z,8.83
2022-11-18T10:56:02.583Z,12.53
2022-11-18T10:58:35.543Z,9.57
2022-11-18T11:01:08.504Z,10.97
2022-11-18T11:03:39.648Z,10.07
2022-11-18T11:06:22.358Z,11.37
2022-11-18T11:08:54.656Z,10.50
2022-11-18T11:11:45.194Z,13.13
2022-11-18T11:14:33.755Z,10.23
2022-11-18T11:17:15.660Z,9.27
2022-11-18T11:19:45.441Z,10.23
2022-11-18T11:22:13.424Z,10.17
2022-11-18T11:24:40.891Z,9.60
2022-11-18T11:30:04.658Z,11.43
2022-11-18T11:32:48.492Z,13.27
2022-11-18T11:35:30.966Z,10.73
2022-11-18T11:38:21.284Z,18.37
2022-11-18T11:40:51.457Z,14.83
2022-11-18T11:43:27.597Z,11.53
2022-11-18T11:45:58.140Z,10.50
2022-11-18T11:48:49.046Z,11.67
2022-11-18T11:51:26.936Z,9.67
2022-11-18T11:54:00.452Z,8.87
2022-11-18T11:56:45.068Z,11.97
2022-11-18T11:59:18.746Z,10.10
2022-11-18T12:02:00.510Z,9.07
2022-11-18T12:04:37.080Z,13.50
2022-11-18T12:07:07.089Z,9.60
2022-11-18T12:10:07.195Z,12.47
2022-11-18T12:12:51.090Z,9.57
2022-11-18T12:15:25.086Z,9.93
2022-11-18T12:18:01.657Z,11.27
2022-11-18T12:20:48.303Z,8.93
2022-11-18T12:23:25.912Z,10.67
2022-11-18T12:25:58.568Z,9.93
2022-11-18T12:28:35.578Z,8.43
2022-11-18T12:31:18.644Z,10.07
2022-11-18T12:33:48.565Z,9.73
2022-11-18T12:36:35.215Z,10.77
2022-11-18T12:39:21.720Z,11.47
2022-11-18T12:42:12.006Z,13.33
2022-11-18T12:44:39.897Z,13.60
2022-11-18T12:47:09.282Z,14.90
2022-11-18T12:49:36.516Z,10.83
2022-11-18T12:52:05.522Z,11.30
2022-11-18T12:54:35.359Z,11.47
2022-11-18T12:57:04.761Z,9.43
2022-11-18T12:59:33.723Z,12.60
2022-11-18T13:02:13.270Z,11.20
2022-11-18T13:04:45.817Z,11.03
2022-11-18T13:07:34.901Z,13.43
2022-11-18T13:10:03.188Z,10.77
2022-11-18T13:12:31.043Z,11.57
2022-11-18T13:15:18.041Z,12.77
2022-11-18T13:17:58.831Z,9.97
2022-11-18T13:20:36.799Z,11.57
2022-11-18T13:23:24.622Z,11.97
2022-11-18T13:25:51.953Z,12.77
2022-11-18T13:28:31.386Z,11.03
2022-11-18T13:31:06.045Z,11.27
2022-11-18T13:33:37.442Z,11.80
2022-11-18T13:36:04.837Z,11.90
2022-11-18T13:38:32.319Z,14.00
2022-11-18T13:41:08.098Z,11.63
2022-11-18T13:43:36.107Z,13.07
2022-11-18T13:46:14.934Z,10.83
2022-11-18T13:48:47.236Z,13.23
2022-11-18T13:51:14.771Z,17.40
2022-11-18T13:53:43.519Z,16.73
2022-11-18T13:56:20.378Z,13.87
2022-11-18T14:01:40.185Z,22.10
2022-11-18T14:04:19.685Z,13.47
2022-11-18T14:06:49.192Z,15.87
2022-11-18T14:09:17.881Z,16.20
2022-11-18T14:11:47.101Z,14.17
2022-11-18T14:14:28.403Z,13.03
2022-11-18T14:17:03.925Z,13.70
2022-11-18T14:19:32.227Z,16.23
2022-11-18T14:22:11.549Z,14.40
2022-11-18T14:24:40.308Z,14.87
2022-11-18T14:27:26.418Z,15.03
2022-11-18T14:29:53.649Z,16.73
2022-11-18T14:32:21.615Z,15.23
2022-11-18T14:34:58.099Z,16.53
2022-11-18T14:37:25.347Z,18.53
2022-11-18T14:39:58.827Z,20.07
2022-11-18T14:42:26.175Z,18.47
2022-11-18T14:44:53.453Z,18.57
2022-11-18T14:47:27.240Z,19.93
2022-11-18T14:49:55.569Z,21.93
2022-11-18T14:52:22.920Z,20.63
2022-11-18T14:54:50.228Z,24.00
2022-11-18T14:57:19.504Z,23.73
2022-11-18T14:59:46.882Z,21.77
2022-11-18T15:02:15.628Z,22.88
2022-11-18T15:04:46.847Z,25.93
2022-11-18T15:07:22.813Z,20.67
2022-11-18T15:09:50.955Z,21.97
2022-11-18T15:12:18.323Z,22.13
2022-11-18T15:14:45.615Z,19.73
2022-11-18T15:17:20.462Z,23.80
2022-11-18T15:19:47.985Z,22.47
2022-11-18T15:22:15.243Z,20.47
2022-11-18T15:24:42.480Z,22.03
2022-11-18T15:27:10.696Z,20.23
2022-11-18T15:29:38.023Z,18.37
2022-11-18T15:32:05.345Z,17.90
2022-11-18T15:34:32.784Z,15.17
2022-11-18T15:37:00.035Z,16.23
2022-11-18T15:39:27.278Z,19.03
2022-11-18T15:41:54.546Z,18.10
2022-11-18T15:44:22.095Z,15.53
2022-11-18T15:46:50.385Z,16.37
2022-11-18T15:49:17.979Z,18.47
2022-11-18T15:51:45.436Z,19.23
2022-11-18T15:54:12.695Z,16.43
2022-11-18T15:56:41.584Z,18.27
2022-11-18T15:59:12.803Z,21.30
2022-11-18T16:01:41.247Z,19.67
2022-11-18T16:04:13.157Z,22.67
2022-11-18T16:06:43.478Z,21.83
2022-11-18T16:10:01.998Z,22.80
2022-11-18T16:12:47.305Z,20.30
2022-11-18T16:15:34.225Z,21.43
2022-11-18T16:18:02.070Z,22.73
2022-11-18T16:20:29.363Z,22.87
2022-11-18T16:22:57.399Z,23.33
2022-11-18T16:25:25.309Z,23.17
2022-11-18T16:27:52.697Z,27.00
2022-11-18T16:30:38.580Z,24.80
2022-11-18T16:33:05.855Z,24.07
2022-11-18T16:35:33.110Z,22.50
2022-11-18T16:38:00.347Z,23.17
2022-11-18T16:40:28.554Z,25.10
2022-11-18T16:42:56.020Z,23.70
2022-11-18T16:45:23.313Z,23.30
2022-11-18T16:47:51.435Z,23.40
2022-11-18T16:50:20.743Z,25.80
2022-11-18T16:52:48.013Z,25.30
2022-11-18T16:55:15.304Z,28.67
2022-11-18T16:57:42.541Z,24.77
2022-11-18T17:00:10.243Z,23.57
2022-11-18T17:02:37.546Z,22.20
2022-11-18T17:05:04.958Z,21.70
2022-11-18T17:07:38.300Z,21.03
2022-11-18T17:10:06.380Z,24.57
2022-11-18T17:12:33.603Z,24.53
2022-11-18T17:15:00.903Z,21.77
2022-11-18T17:17:28.151Z,20.80
2022-11-18T17:19:55.823Z,23.20
2022-11-18T17:22:24.505Z,24.63
2022-11-18T17:24:55.041Z,24.47
2022-11-18T17:27:23.496Z,22.20
2022-11-18T17:29:50.843Z,23.00
2022-11-18T17:32:19.479Z,23.13
2022-11-18T17:34:47.429Z,24.80
2022-11-18T17:37:14.727Z,23.37
2022-11-18T17:39:42.218Z,19.73
2022-11-18T17:42:15.697Z,21.70
2022-11-18T17:44:45.399Z,20.97
2022-11-18T17:47:12.652Z,20.60
2022-11-18T17:49:40.155Z,20.83
2022-11-18T17:52:07.778Z,20.90
2022-11-18T17:54:36.899Z,21.43
2022-11-18T17:57:04.277Z,19.87
2022-11-18T17:59:32.717Z,20.33
2022-11-18T18:02:01.287Z,23.10
2022-11-18T18:04:28.735Z,23.73
2022-11-18T18:06:56.164Z,21.87
2022-11-18T18:09:30.094Z,22.60
2022-11-18T18:11:58.499Z,23.27
2022-11-18T18:14:25.771Z,23.00
2022-11-18T18:16:53.047Z,24.63
2022-11-18T18:19:21.743Z,22.77
2022-11-18T18:21:49.337Z,22.97
2022-11-18T18:24:20.962Z,23.43
2022-11-18T18:26:49.211Z,21.80
2022-11-18T18:29:16.603Z,21.97
2022-11-18T18:31:44.727Z,19.83
2022-11-18T18:34:12.942Z,19.97
2022-11-18T18:36:40.248Z,20.13
2022-11-18T18:39:07.784Z,21.27
2022-11-18T18:41:35.109Z,20.37
2022-11-18T18:44:02.452Z,22.57
2022-11-18T18:46:32.305Z,21.83
2022-11-18T18:49:01.655Z,20.50
2022-11-18T18:51:30.294Z,20.60
2022-11-18T18:53:58.703Z,21.30
2022-11-18T18:56:26.292Z,21.83
2022-11-18T18:58:53.687Z,19.80
2022-11-18T19:01:22.057Z,21.93
2022-11-18T19:03:54.556Z,21.07
2022-11-18T19:06:52.068Z,23.63
2022-11-18T19:09:14.303Z,23.53
2022-11-18T19:12:00.800Z,23.27
2022-11-18T19:14:28.408Z,22.67
2022-11-18T19:16:56.076Z,20.37
2022-11-18T19:19:43.777Z,20.70
2022-11-18T19:22:11.711Z,22.87
2022-11-18T19:27:26.730Z,25.23
2022-11-18T19:29:53.963Z,23.83
2022-11-18T19:32:21.278Z,22.87
2022-11-18T19:34:48.637Z,25.47
2022-11-18T19:37:15.880Z,26.93
2022-11-18T19:39:43.127Z,23.93
2022-11-18T19:42:11.146Z,19.90
2022-11-18T19:44:38.962Z,18.30
2022-11-18T19:47:06.447Z,22.53
2022-11-18T19:49:33.748Z,20.37
2022-11-18T19:52:00.991Z,20.20
2022-11-18T19:54:28.337Z,23.73
2022-11-18T19:56:55.719Z,23.90
2022-11-18T19:59:23.015Z,25.90
2022-11-18T20:01:50.384Z,25.73
2022-11-18T20:04:17.669Z,25.50
2022-11-18T20:06:45.974Z,24.33
2022-11-18T20:09:13.419Z,27.00
2022-11-18T20:11:40.674Z,22.03
2022-11-18T20:14:08.539Z,23.10
2022-11-18T20:16:36.950Z,24.50
2022-11-18T20:19:09.438Z,20.77
2022-11-18T20:21:47.947Z,24.20
2022-11-18T20:24:17.043Z,22.33
2022-11-18T20:26:44.404Z,20.50
2022-11-18T20:29:11.773Z,25.70
2022-11-18T20:31:39.266Z,24.50
2022-11-18T20:34:06.581Z,24.37
2022-11-18T20:36:35.566Z,21.63
2022-11-18T20:39:05.687Z,23.53
2022-11-18T20:41:33.537Z,22.20
2022-11-18T20:44:01.455Z,22.47
2022-11-18T20:46:30.163Z,22.33
2022-11-18T20:48:57.434Z,20.07
2022-11-18T20:51:25.512Z,23.63
2022-11-18T20:53:53.775Z,21.33
2022-11-18T20:56:22.573Z,20.20
2022-11-18T20:58:51.368Z,20.17
2022-11-18T21:01:19.766Z,21.60
2022-11-18T21:03:54.561Z,20.83
2022-11-18T21:06:23.342Z,23.60
2022-11-18T21:08:57.650Z,20.97
2022-11-18T21:11:25.600Z,20.40
2022-11-18T21:14:11.756Z,24.60
2022-11-18T21:16:40.324Z,20.77
2022-11-18T21:19:07.768Z,21.10
2022-11-18T21:21:44.562Z,22.23
2022-11-18T21:24:23.054Z,21.53
2022-11-18T21:26:51.626Z,25.00
2022-11-18T21:29:19.298Z,25.17
2022-11-18T21:31:47.586Z,23.20
2022-11-18T21:34:15.624Z,22.53
2022-11-18T21:36:46.929Z,23.73
2022-11-18T21:39:17.958Z,23.50
2022-11-18T21:41:48.352Z,23.50
2022-11-18T21:44:18.283Z,22.53
2022-11-18T21:46:45.738Z,23.67
2022-11-18T21:49:13.084Z,22.83
2022-11-18T21:51:40.311Z,24.77
2022-11-18T21:54:08.766Z,21.80
